Time;durP1;ratioP1;P1;durP2;ratioP2;P2;SDS_P1;SDS_P2;PMS_P1;PMS_P2;Temp;Humidity;BMP_temperature;BMP_pressure;BME280_temperature;BME280_humidity;BME280_pressure;Samples;Min_cycle;Max_cycle;Signal;HPM_P1;HPM_P2
2023/06/13 00:01:24;;;;;;;;;;;23.70;87.90;;;;;;4594296;19;19914;-27
2023/06/13 00:03:00;;;;;;;;;;;23.70;88.00;;;;;;4593464;19;19919;-27
2023/06/13 00:04:31;;;;;;;;;;;23.70;88.10;;;;;;4594347;19;19919;-22
2023/06/13 00:06:02;;;;;;;;;;;23.70;87.90;;;;;;4593437;19;19937;-27
2023/06/13 00:07:37;;;;;;;;;;;23.70;88.30;;;;;;4592531;19;19922;-27
2023/06/13 00:09:08;;;;;;;;;;;23.70;88.40;;;;;;4592857;19;19915;-23
2023/06/13 00:10:39;;;;;;;;;;;23.70;88.50;;;;;;4591071;19;20347;-24
2023/06/13 00:12:11;;;;;;;;;;;23.70;88.50;;;;;;4592916;19;19926;-25
2023/06/13 00:13:42;;;;;;;;;;;23.70;88.20;;;;;;4592532;19;19927;-23
2023/06/13 00:15:12;;;;;;;;;;;23.70;88.10;;;;;;4593327;19;19926;-24
2023/06/13 00:16:44;;;;;;;;;;;23.70;88.20;;;;;;4592865;19;19962;-23
2023/06/13 00:18:15;;;;;;;;;;;23.60;88.40;;;;;;4593036;19;19945;-26
2023/06/13 00:19:46;;;;;;;;;;;23.60;88.10;;;;;;4591599;19;19919;-23
2023/06/13 00:21:18;;;;;;;;;;;23.60;89.00;;;;;;4593726;19;19919;-23
2023/06/13 00:22:49;;;;;;;;;;;23.60;88.30;;;;;;4592503;19;19933;-27
2023/06/13 00:24:20;;;;;;;;;;;23.60;88.50;;;;;;4592959;19;19948;-23
2023/06/13 00:25:51;;;;;;;;;;;23.60;88.30;;;;;;4592385;19;20300;-27
2023/06/13 00:27:22;;;;;;;;;;;23.60;88.10;;;;;;4593486;19;19933;-23
2023/06/13 00:28:54;;;;;;;;;;;23.60;88.10;;;;;;4591529;19;20189;-27
2023/06/13 00:30:25;;;;;;;;;;;23.60;88.40;;;;;;4592014;19;19933;-23
2023/06/13 00:31:57;;;;;;;;;;;23.60;88.40;;;;;;4593488;19;20332;-24
2023/06/13 00:33:31;;;;;;;;;;;23.60;88.50;;;;;;4591442;19;19919;-29
2023/06/13 00:35:02;;;;;;;;;;;23.60;88.50;;;;;;4591569;19;19982;-24
2023/06/13 00:36:33;;;;;;;;;;;23.60;88.30;;;;;;4590687;19;19922;-22
2023/06/13 00:38:06;;;;;;;;;;;23.50;88.30;;;;;;4592155;19;19937;-24
2023/06/13 00:39:41;;;;;;;;;;;23.60;89.10;;;;;;4592592;19;19948;-24
2023/06/13 00:41:12;;;;;;;;;;;23.70;94.00;;;;;;4589719;19;19919;-27
2023/06/13 00:42:58;;;;;;;;;;;23.70;92.90;;;;;;4592493;19;19929;-24
2023/06/13 00:44:30;;;;;;;;;;;23.80;92.30;;;;;;4589751;19;19930;-24
2023/06/13 00:46:02;;;;;;;;;;;23.80;91.90;;;;;;4590838;19;19938;-24
2023/06/13 00:47:34;;;;;;;;;;;23.80;91.60;;;;;;4591522;19;20250;-24
2023/06/13 00:49:05;;;;;;;;;;;23.70;91.40;;;;;;4590666;19;20288;-28
2023/06/13 00:50:36;;;;;;;;;;;23.70;91.20;;;;;;4590420;19;19923;-28
2023/06/13 00:52:08;;;;;;;;;;;23.60;91.20;;;;;;4590575;19;19945;-22
2023/06/13 00:53:40;;;;;;;;;;;23.60;91.10;;;;;;4590781;19;19990;-22
2023/06/13 00:55:11;;;;;;;;;;;23.50;91.00;;;;;;4590484;19;19914;-24
2023/06/13 00:56:44;;;;;;;;;;;23.50;90.90;;;;;;4592628;19;19922;-24
2023/06/13 00:58:15;;;;;;;;;;;23.40;91.00;;;;;;4589557;19;19978;-24
2023/06/13 00:59:46;;;;;;;;;;;23.40;91.10;;;;;;4591186;19;20245;-24
2023/06/13 01:01:19;;;;;;;;;;;23.30;90.90;;;;;;4590629;19;19921;-23
2023/06/13 01:02:55;;;;;;;;;;;23.30;91.00;;;;;;4592978;19;19923;-25
2023/06/13 01:04:27;;;;;;;;;;;23.20;91.10;;;;;;4590840;19;19922;-29
2023/06/13 01:05:58;;;;;;;;;;;23.20;90.90;;;;;;4590415;19;19930;-21
2023/06/13 01:07:33;;;;;;;;;;;23.10;91.00;;;;;;4592549;19;19915;-24
2023/06/13 01:09:04;;;;;;;;;;;23.10;91.00;;;;;;4591177;19;19933;-24
2023/06/13 01:10:36;;;;;;;;;;;23.10;90.50;;;;;;4592012;19;20321;-26
2023/06/13 01:12:18;;;;;;;;;;;23.10;90.20;;;;;;4590472;19;19923;-27
2023/06/13 01:13:54;;;;;;;;;;;23.10;90.10;;;;;;4589784;19;19915;-24
2023/06/13 01:15:25;;;;;;;;;;;23.20;90.20;;;;;;4591500;19;19923;-23
2023/06/13 01:17:03;;;;;;;;;;;23.30;90.10;;;;;;4590703;19;19941;-24
2023/06/13 01:18:35;;;;;;;;;;;23.30;90.20;;;;;;4590531;19;20234;-23
2023/06/13 01:20:06;;;;;;;;;;;23.30;90.00;;;;;;4590668;19;20297;-26
2023/06/13 01:21:37;;;;;;;;;;;23.40;89.80;;;;;;4591449;19;20253;-24
2023/06/13 01:23:16;;;;;;;;;;;23.40;89.60;;;;;;4590473;19;19926;-28
2023/06/13 01:24:58;;;;;;;;;;;23.40;89.60;;;;;;4591348;19;19938;-26
2023/06/13 01:26:46;;;;;;;;;;;23.50;89.50;;;;;;4591578;19;20259;-23
2023/06/13 01:28:16;;;;;;;;;;;23.50;89.30;;;;;;4591177;19;19925;-23
2023/06/13 01:29:47;;;;;;;;;;;23.50;89.30;;;;;;4590734;19;19918;-23
2023/06/13 01:31:19;;;;;;;;;;;23.50;89.40;;;;;;4589554;19;20362;-23
2023/06/13 01:33:05;;;;;;;;;;;23.50;89.20;;;;;;4590739;19;20261;-23
2023/06/13 01:34:36;;;;;;;;;;;23.50;89.20;;;;;;4591201;19;19927;-24
2023/06/13 01:36:08;;;;;;;;;;;23.50;89.20;;;;;;4590826;19;20336;-23
2023/06/13 01:37:39;;;;;;;;;;;23.50;89.10;;;;;;4591525;19;19955;-23
2023/06/13 01:39:11;;;;;;;;;;;23.50;89.20;;;;;;4589346;19;19915;-24
2023/06/13 01:40:42;;;;;;;;;;;23.50;89.10;;;;;;4591018;19;19989;-24
2023/06/13 01:42:13;;;;;;;;;;;23.50;89.10;;;;;;4590763;19;20348;-25
2023/06/13 01:43:44;;;;;;;;;;;23.50;89.00;;;;;;4590372;19;20278;-26
2023/06/13 01:45:15;;;;;;;;;;;23.50;89.10;;;;;;4590683;19;19915;-23
2023/06/13 01:46:51;;;;;;;;;;;23.50;89.30;;;;;;4590416;19;20259;-23
2023/06/13 01:48:41;;;;;;;;;;;23.50;89.50;;;;;;4590570;19;19920;-23
2023/06/13 01:50:20;;;;;;;;;;;23.50;89.50;;;;;;4589403;19;20244;-23
2023/06/13 01:51:51;;;;;;;;;;;23.50;89.50;;;;;;4590423;19;19922;-23
2023/06/13 01:53:26;;;;;;;;;;;23.50;89.40;;;;;;4590398;19;19987;-25
2023/06/13 01:55:09;;;;;;;;;;;23.50;89.70;;;;;;4591465;19;19919;-23
2023/06/13 01:56:41;;;;;;;;;;;23.50;89.60;;;;;;4591312;19;19919;-23
2023/06/13 01:58:35;;;;;;;;;;;23.50;89.60;;;;;;4588523;19;19915;-23
2023/06/13 02:00:09;;;;;;;;;;;23.50;89.50;;;;;;4590358;19;19923;-26
2023/06/13 02:01:40;;;;;;;;;;;23.50;89.70;;;;;;4589917;19;20532;-23
2023/06/13 02:03:12;;;;;;;;;;;23.50;89.60;;;;;;4591116;19;20356;-23
2023/06/13 02:04:46;;;;;;;;;;;23.50;89.70;;;;;;4589887;19;19918;-24
2023/06/13 02:06:17;;;;;;;;;;;23.50;89.70;;;;;;4589528;19;19915;-25
2023/06/13 02:07:53;;;;;;;;;;;23.50;89.70;;;;;;4590727;19;19974;-24
2023/06/13 02:09:24;;;;;;;;;;;23.50;89.80;;;;;;4590675;19;19928;-24
2023/06/13 02:10:55;;;;;;;;;;;23.50;89.60;;;;;;4589872;19;20264;-23
2023/06/13 02:12:26;;;;;;;;;;;23.50;89.90;;;;;;4588971;19;19923;-23
2023/06/13 02:13:57;;;;;;;;;;;23.40;89.90;;;;;;4589573;19;19910;-23
2023/06/13 02:15:28;;;;;;;;;;;23.50;90.00;;;;;;4589653;19;19925;-27
2023/06/13 02:16:59;;;;;;;;;;;23.40;89.90;;;;;;4589362;19;19927;-24
2023/06/13 02:18:31;;;;;;;;;;;23.40;89.90;;;;;;4589765;19;19919;-23
2023/06/13 02:20:06;;;;;;;;;;;23.40;90.00;;;;;;4590512;19;19923;-23
2023/06/13 02:21:37;;;;;;;;;;;23.40;90.00;;;;;;4590880;19;19933;-23
2023/06/13 02:23:10;;;;;;;;;;;23.40;89.90;;;;;;4589643;19;20020;-24
2023/06/13 02:24:41;;;;;;;;;;;23.40;90.00;;;;;;4591800;19;19919;-28
2023/06/13 02:26:13;;;;;;;;;;;23.40;90.10;;;;;;4590863;19;19929;-24
2023/06/13 02:27:44;;;;;;;;;;;23.40;90.00;;;;;;4590110;19;19986;-23
2023/06/13 02:29:18;;;;;;;;;;;23.40;90.10;;;;;;4590193;19;19937;-23
2023/06/13 02:30:49;;;;;;;;;;;23.40;90.10;;;;;;4589565;19;19926;-22
2023/06/13 02:32:22;;;;;;;;;;;23.30;90.10;;;;;;4591792;19;19927;-28
2023/06/13 02:33:54;;;;;;;;;;;23.40;90.20;;;;;;4590068;19;20354;-24
2023/06/13 02:35:25;;;;;;;;;;;23.40;90.10;;;;;;4590429;19;19923;-23
2023/06/13 02:36:56;;;;;;;;;;;23.30;90.10;;;;;;4590730;19;19927;-22
2023/06/13 02:38:27;;;;;;;;;;;23.30;90.20;;;;;;4590648;19;19924;-24
2023/06/13 02:39:58;;;;;;;;;;;23.40;90.20;;;;;;4588993;19;20633;-24
2023/06/13 02:41:30;;;;;;;;;;;23.30;90.20;;;;;;4588822;19;19947;-27
2023/06/13 02:43:01;;;;;;;;;;;23.30;90.20;;;;;;4591133;19;19915;-24
2023/06/13 02:44:32;;;;;;;;;;;23.40;90.30;;;;;;4590338;19;19937;-24
2023/06/13 02:46:03;;;;;;;;;;;23.30;90.20;;;;;;4591125;19;19926;-24
2023/06/13 02:47:34;;;;;;;;;;;23.30;90.10;;;;;;4590446;19;19914;-23
2023/06/13 02:49:05;;;;;;;;;;;23.30;90.30;;;;;;4591147;19;19925;-24
2023/06/13 02:50:37;;;;;;;;;;;23.30;90.40;;;;;;4589480;19;19919;-22
2023/06/13 02:52:08;;;;;;;;;;;23.30;90.30;;;;;;4589165;19;19923;-26
2023/06/13 02:53:39;;;;;;;;;;;23.30;90.40;;;;;;4589119;19;19926;-24
2023/06/13 02:55:11;;;;;;;;;;;23.30;90.40;;;;;;4590016;19;19958;-24
2023/06/13 02:56:43;;;;;;;;;;;23.30;90.50;;;;;;4590154;19;19927;-30
2023/06/13 02:58:14;;;;;;;;;;;23.30;90.50;;;;;;4587370;19;19919;-26
2023/06/13 02:59:47;;;;;;;;;;;23.30;90.40;;;;;;4590909;19;19922;-23
2023/06/13 03:01:18;;;;;;;;;;;23.30;90.40;;;;;;4589065;19;19923;-26
2023/06/13 03:02:49;;;;;;;;;;;23.20;90.50;;;;;;4589302;19;19921;-24
2023/06/13 03:04:20;;;;;;;;;;;23.30;90.70;;;;;;4589680;19;20297;-27
2023/06/13 03:05:56;;;;;;;;;;;23.30;90.60;;;;;;4589574;19;19922;-24
2023/06/13 03:07:31;;;;;;;;;;;23.30;90.60;;;;;;4589676;19;19926;-23
2023/06/13 03:09:04;;;;;;;;;;;23.30;90.60;;;;;;4589000;19;19957;-23
2023/06/13 03:10:35;;;;;;;;;;;23.30;90.50;;;;;;4589531;19;19918;-24
2023/06/13 03:12:06;;;;;;;;;;;23.30;90.60;;;;;;4588319;19;19915;-23
2023/06/13 03:13:38;;;;;;;;;;;23.30;90.60;;;;;;4590218;19;19943;-22
2023/06/13 03:15:12;;;;;;;;;;;23.30;90.90;;;;;;4592416;19;19919;-23
2023/06/13 03:16:43;;;;;;;;;;;23.30;90.60;;;;;;4592527;19;20018;-23
2023/06/13 03:18:14;;;;;;;;;;;23.30;90.60;;;;;;4594530;19;19925;-26
2023/06/13 03:19:47;;;;;;;;;;;23.30;90.60;;;;;;4594520;19;20573;-26
2023/06/13 03:21:20;;;;;;;;;;;23.30;90.70;;;;;;4592804;19;20353;-23
2023/06/13 03:22:52;;;;;;;;;;;23.20;90.60;;;;;;4592440;19;19923;-23
2023/06/13 03:24:23;;;;;;;;;;;23.20;90.60;;;;;;4595219;19;20248;-24
2023/06/13 03:25:55;;;;;;;;;;;23.20;90.70;;;;;;4593331;19;19922;-26
2023/06/13 03:27:27;;;;;;;;;;;23.20;90.70;;;;;;4594531;19;19946;-27
2023/06/13 03:28:59;;;;;;;;;;;23.20;90.80;;;;;;4594182;19;19934;-29
2023/06/13 03:30:30;;;;;;;;;;;23.20;90.70;;;;;;4593850;19;20300;-26
2023/06/13 03:32:01;;;;;;;;;;;23.20;90.80;;;;;;4593421;19;20458;-22
2023/06/13 03:33:32;;;;;;;;;;;23.20;90.80;;;;;;4593131;19;19918;-26
2023/06/13 03:35:03;;;;;;;;;;;23.20;90.80;;;;;;4594634;19;20256;-23
2023/06/13 03:36:37;;;;;;;;;;;23.20;90.80;;;;;;4593809;19;19915;-27
2023/06/13 03:38:08;;;;;;;;;;;23.20;90.90;;;;;;4592428;19;19918;-25
2023/06/13 03:39:38;;;;;;;;;;;23.20;90.90;;;;;;4592988;19;19991;-24
2023/06/13 03:41:10;;;;;;;;;;;23.20;91.00;;;;;;4592808;19;20009;-23
2023/06/13 03:42:41;;;;;;;;;;;23.20;90.90;;;;;;4593134;19;20443;-24
2023/06/13 03:44:12;;;;;;;;;;;23.20;90.90;;;;;;4592360;19;20004;-25
2023/06/13 03:45:43;;;;;;;;;;;23.20;91.30;;;;;;4593405;19;19956;-26
2023/06/13 03:47:14;;;;;;;;;;;23.30;91.60;;;;;;4593195;19;19922;-23
2023/06/13 03:48:46;;;;;;;;;;;23.30;91.20;;;;;;4593377;19;19918;-25
2023/06/13 03:50:18;;;;;;;;;;;23.40;91.40;;;;;;4592990;19;20336;-26
2023/06/13 03:51:50;;;;;;;;;;;23.50;91.60;;;;;;4594460;19;19926;-25
2023/06/13 03:53:21;;;;;;;;;;;23.60;90.90;;;;;;4593693;19;19951;-24
2023/06/13 03:54:53;;;;;;;;;;;23.70;91.70;;;;;;4594064;19;19919;-23
2023/06/13 03:56:24;;;;;;;;;;;23.70;91.20;;;;;;4592684;19;19989;-28
2023/06/13 03:57:56;;;;;;;;;;;23.80;91.60;;;;;;4591718;19;19918;-30
2023/06/13 03:59:27;;;;;;;;;;;23.90;90.90;;;;;;4590783;19;19915;-31
2023/06/13 04:01:00;;;;;;;;;;;23.90;90.60;;;;;;4591569;19;20261;-24
2023/06/13 04:02:31;;;;;;;;;;;23.90;90.50;;;;;;4593852;19;19932;-25
2023/06/13 04:04:03;;;;;;;;;;;24.00;90.80;;;;;;4592251;19;19915;-25
2023/06/13 04:05:34;;;;;;;;;;;24.00;94.30;;;;;;4592642;19;19922;-24
2023/06/13 04:07:06;;;;;;;;;;;24.10;93.60;;;;;;4591726;19;20010;-24
2023/06/13 04:08:38;;;;;;;;;;;24.20;93.20;;;;;;4592721;19;19923;-25
2023/06/13 04:10:10;;;;;;;;;;;24.20;92.80;;;;;;4592563;19;19938;-26
2023/06/13 04:11:41;;;;;;;;;;;24.20;92.60;;;;;;4591585;19;19926;-25
2023/06/13 04:13:14;;;;;;;;;;;24.10;92.40;;;;;;4593825;19;19939;-27
2023/06/13 04:14:46;;;;;;;;;;;24.10;92.30;;;;;;4591784;19;20277;-26
2023/06/13 04:16:17;;;;;;;;;;;24.00;92.20;;;;;;4593175;19;19919;-24
2023/06/13 04:17:48;;;;;;;;;;;24.00;92.20;;;;;;4592531;19;20449;-23
2023/06/13 04:19:20;;;;;;;;;;;23.90;92.20;;;;;;4591037;19;19935;-24
2023/06/13 04:20:53;;;;;;;;;;;23.90;91.30;;;;;;4592130;19;20260;-26
2023/06/13 04:22:25;;;;;;;;;;;23.80;91.60;;;;;;4592359;19;19982;-25
2023/06/13 04:23:56;;;;;;;;;;;23.70;91.30;;;;;;4592260;19;20258;-25
2023/06/13 04:25:27;;;;;;;;;;;23.70;91.10;;;;;;4590313;19;19937;-24
2023/06/13 04:27:00;;;;;;;;;;;23.70;90.90;;;;;;4589453;19;19926;-23
2023/06/13 04:28:32;;;;;;;;;;;23.60;90.80;;;;;;4590353;19;19915;-24
2023/06/13 04:30:03;;;;;;;;;;;23.50;91.10;;;;;;4590100;19;19926;-26
2023/06/13 04:31:36;;;;;;;;;;;23.50;91.10;;;;;;4591831;19;19915;-24
2023/06/13 04:33:14;;;;;;;;;;;23.50;91.10;;;;;;4591414;19;19931;-24
2023/06/13 04:34:45;;;;;;;;;;;23.50;91.10;;;;;;4591226;19;19950;-24
2023/06/13 04:36:16;;;;;;;;;;;23.50;91.10;;;;;;4592180;19;20329;-28
2023/06/13 04:37:48;;;;;;;;;;;23.50;91.10;;;;;;4592607;19;19927;-26
2023/06/13 04:39:23;;;;;;;;;;;23.50;91.10;;;;;;4591523;19;19919;-24
2023/06/13 04:40:55;;;;;;;;;;;23.50;91.10;;;;;;4591357;19;19942;-27
2023/06/13 04:42:29;;;;;;;;;;;23.40;91.10;;;;;;4592615;19;20263;-29
2023/06/13 04:44:00;;;;;;;;;;;23.40;91.10;;;;;;4591370;19;20290;-23
2023/06/13 04:45:33;;;;;;;;;;;23.40;91.20;;;;;;4590703;19;20252;-24
2023/06/13 04:47:04;;;;;;;;;;;23.40;91.20;;;;;;4592163;19;20310;-27
2023/06/13 04:48:35;;;;;;;;;;;23.40;91.20;;;;;;4591806;19;19919;-23
2023/06/13 04:50:07;;;;;;;;;;;23.40;91.30;;;;;;4589399;19;19919;-23
2023/06/13 04:51:40;;;;;;;;;;;23.40;91.30;;;;;;4592959;19;19944;-24
2023/06/13 04:53:12;;;;;;;;;;;23.30;91.20;;;;;;4592437;19;19922;-22
2023/06/13 04:54:45;;;;;;;;;;;23.30;91.20;;;;;;4592992;19;19934;-27
2023/06/13 04:56:16;;;;;;;;;;;23.30;91.20;;;;;;4591606;19;20329;-24
2023/06/13 04:57:47;;;;;;;;;;;23.30;91.40;;;;;;4592887;19;19978;-23
2023/06/13 04:59:22;;;;;;;;;;;23.30;91.30;;;;;;4591043;19;19923;-22
2023/06/13 05:00:55;;;;;;;;;;;23.20;91.20;;;;;;4591246;19;19923;-21
2023/06/13 05:02:28;;;;;;;;;;;23.20;91.40;;;;;;4593115;19;19919;-22
2023/06/13 05:04:01;;;;;;;;;;;23.20;91.40;;;;;;4592137;19;19911;-22
2023/06/13 05:05:33;;;;;;;;;;;23.20;91.40;;;;;;4592427;19;19923;-22
2023/06/13 05:07:07;;;;;;;;;;;23.20;91.40;;;;;;4590824;19;19919;-23
2023/06/13 05:08:39;;;;;;;;;;;23.20;91.30;;;;;;4589399;19;19922;-29
2023/06/13 05:10:10;;;;;;;;;;;23.20;91.30;;;;;;4591562;19;19915;-23
2023/06/13 05:11:41;;;;;;;;;;;23.20;91.30;;;;;;4591320;19;19931;-30
2023/06/13 05:13:13;;;;;;;;;;;23.20;91.40;;;;;;4592275;19;19941;-24
2023/06/13 05:14:44;;;;;;;;;;;23.20;91.40;;;;;;4592647;19;19926;-21
2023/06/13 05:16:17;;;;;;;;;;;23.20;91.40;;;;;;4590106;19;19922;-22
2023/06/13 05:17:52;;;;;;;;;;;23.20;91.30;;;;;;4592733;19;19923;-22
2023/06/13 05:19:24;;;;;;;;;;;23.20;91.40;;;;;;4590149;19;19923;-22
2023/06/13 05:20:56;;;;;;;;;;;23.20;91.50;;;;;;4590907;19;19938;-22
2023/06/13 05:22:28;;;;;;;;;;;23.10;91.40;;;;;;4591707;19;20349;-24
2023/06/13 05:24:00;;;;;;;;;;;23.10;91.50;;;;;;4591728;19;19923;-23
2023/06/13 05:25:32;;;;;;;;;;;23.20;91.50;;;;;;4591846;19;20333;-28
2023/06/13 05:27:06;;;;;;;;;;;23.10;91.40;;;;;;4593102;19;19923;-24
2023/06/13 05:28:37;;;;;;;;;;;23.20;91.40;;;;;;4591081;19;20340;-25
2023/06/13 05:30:09;;;;;;;;;;;23.20;91.50;;;;;;4591924;19;19943;-23
2023/06/13 05:31:41;;;;;;;;;;;23.20;91.40;;;;;;4589926;19;19919;-26
2023/06/13 05:33:14;;;;;;;;;;;23.20;91.30;;;;;;4592402;19;19940;-22
2023/06/13 05:34:46;;;;;;;;;;;23.20;91.30;;;;;;4591324;19;20251;-23
2023/06/13 05:36:18;;;;;;;;;;;23.20;91.30;;;;;;4591687;19;19919;-23
2023/06/13 05:37:49;;;;;;;;;;;23.10;91.30;;;;;;4591313;19;19915;-29
2023/06/13 05:39:21;;;;;;;;;;;23.10;91.30;;;;;;4590387;19;19945;-27
2023/06/13 05:40:52;;;;;;;;;;;23.20;91.40;;;;;;4591610;19;19929;-27
2023/06/13 05:42:23;;;;;;;;;;;23.20;91.30;;;;;;4591896;19;19919;-24
2023/06/13 05:43:54;;;;;;;;;;;23.20;91.40;;;;;;4591594;19;19943;-23
2023/06/13 05:45:25;;;;;;;;;;;23.20;91.40;;;;;;4591162;19;19923;-24
2023/06/13 05:46:56;;;;;;;;;;;23.20;91.30;;;;;;4591100;19;19989;-22
2023/06/13 05:48:28;;;;;;;;;;;23.30;91.30;;;;;;4591286;19;19914;-23
2023/06/13 05:49:59;;;;;;;;;;;23.40;91.40;;;;;;4591770;19;19921;-24
2023/06/13 05:51:31;;;;;;;;;;;23.40;91.20;;;;;;4590570;19;20222;-24
2023/06/13 05:53:06;;;;;;;;;;;23.50;91.00;;;;;;4591084;19;20350;-23
2023/06/13 05:54:37;;;;;;;;;;;23.50;91.00;;;;;;4590132;19;19982;-28
2023/06/13 06:42:01;;;;;;;;;;;23.50;90.10;;;;;;4589957;19;20352;-24
2023/06/13 06:43:33;;;;;;;;;;;23.40;90.30;;;;;;4589445;19;19919;-24
2023/06/13 06:45:04;;;;;;;;;;;23.50;90.10;;;;;;4590358;19;19930;-27
2023/06/13 06:46:36;;;;;;;;;;;23.50;90.10;;;;;;4588472;19;20264;-24
2023/06/13 06:48:08;;;;;;;;;;;23.40;90.00;;;;;;4589531;19;20401;-23
2023/06/13 06:49:39;;;;;;;;;;;23.40;90.20;;;;;;4590904;19;19939;-31
2023/06/13 06:51:10;;;;;;;;;;;23.40;90.40;;;;;;4594748;19;19971;-23
2023/06/13 06:52:41;;;;;;;;;;;23.40;90.30;;;;;;4593899;19;19918;-23
2023/06/13 06:54:12;;;;;;;;;;;23.40;90.30;;;;;;4594554;19;20233;-26
2023/06/13 06:55:43;;;;;;;;;;;23.40;90.20;;;;;;4594352;19;19919;-25
2023/06/13 06:57:14;;;;;;;;;;;23.40;90.20;;;;;;4594659;19;19919;-23
2023/06/13 06:58:45;;;;;;;;;;;23.40;90.40;;;;;;4594678;19;19919;-29
2023/06/13 07:00:16;;;;;;;;;;;23.40;90.30;;;;;;4593456;19;19978;-30
2023/06/13 07:01:48;;;;;;;;;;;23.40;90.40;;;;;;4594473;19;19986;-25
2023/06/13 07:03:20;;;;;;;;;;;23.30;90.50;;;;;;4594329;19;20303;-27
2023/06/13 07:04:53;;;;;;;;;;;23.40;90.40;;;;;;4593558;19;20234;-23
2023/06/13 07:06:25;;;;;;;;;;;23.40;90.20;;;;;;4594012;19;19933;-27
2023/06/13 07:07:56;;;;;;;;;;;23.30;90.20;;;;;;4593990;19;19975;-23
2023/06/13 07:09:27;;;;;;;;;;;23.30;90.20;;;;;;4595248;19;19931;-26
2023/06/13 07:10:59;;;;;;;;;;;23.30;90.60;;;;;;4593358;19;20353;-29
2023/06/13 07:12:32;;;;;;;;;;;23.30;90.30;;;;;;4594402;19;19930;-23
2023/06/13 07:14:03;;;;;;;;;;;23.30;90.50;;;;;;4594031;19;19974;-24
2023/06/13 07:15:34;;;;;;;;;;;23.30;90.60;;;;;;4593857;19;19951;-26
2023/06/13 07:17:05;;;;;;;;;;;23.30;90.60;;;;;;4593823;19;19919;-24
2023/06/13 07:18:36;;;;;;;;;;;23.30;90.50;;;;;;4592885;19;20285;-24
2023/06/13 07:20:09;;;;;;;;;;;23.30;90.40;;;;;;4594011;19;19930;-22
2023/06/13 07:21:40;;;;;;;;;;;23.30;90.30;;;;;;4593732;19;20244;-24
2023/06/13 07:23:12;;;;;;;;;;;23.30;90.30;;;;;;4594336;19;19915;-25
2023/06/13 07:24:43;;;;;;;;;;;23.30;90.20;;;;;;4594667;19;19915;-23
2023/06/13 07:26:14;;;;;;;;;;;23.20;90.30;;;;;;4591685;19;20325;-22
2023/06/13 07:27:45;;;;;;;;;;;23.20;90.50;;;;;;4592664;19;19949;-24
2023/06/13 07:29:16;;;;;;;;;;;23.20;89.90;;;;;;4593504;19;19922;-23
2023/06/13 07:31:08;;;;;;;;;;;23.20;90.20;;;;;;4594641;19;19986;-26
2023/06/13 07:32:39;;;;;;;;;;;23.20;90.30;;;;;;4594098;19;19930;-25
2023/06/13 07:34:11;;;;;;;;;;;23.20;90.20;;;;;;4593920;19;19914;-24
2023/06/13 07:35:42;;;;;;;;;;;23.20;90.50;;;;;;4592811;19;19960;-24
2023/06/13 07:37:13;;;;;;;;;;;23.10;90.40;;;;;;4592160;19;20400;-28
2023/06/13 07:38:47;;;;;;;;;;;23.20;90.10;;;;;;4593138;19;19982;-27
2023/06/13 07:40:18;;;;;;;;;;;23.20;90.00;;;;;;4591901;19;19922;-22
2023/06/13 07:41:54;;;;;;;;;;;23.10;90.10;;;;;;4592520;19;20280;-26
2023/06/13 07:43:30;;;;;;;;;;;23.10;90.00;;;;;;4592528;19;19927;-21
2023/06/13 07:45:04;;;;;;;;;;;23.10;90.10;;;;;;4593615;19;19974;-21
2023/06/13 07:46:38;;;;;;;;;;;23.20;90.20;;;;;;4593192;19;20332;-25
2023/06/13 07:48:11;;;;;;;;;;;23.10;90.10;;;;;;4592487;19;19919;-23
2023/06/13 07:49:43;;;;;;;;;;;23.20;90.10;;;;;;4592202;19;20364;-22
2023/06/13 07:51:21;;;;;;;;;;;23.20;90.10;;;;;;4592960;19;19911;-27
2023/06/13 07:52:58;;;;;;;;;;;23.20;90.20;;;;;;4593503;19;19919;-25
2023/06/13 07:54:32;;;;;;;;;;;23.20;90.40;;;;;;4592268;19;19919;-24
2023/06/13 07:56:05;;;;;;;;;;;23.20;90.00;;;;;;4592661;19;20333;-25
2023/06/13 07:57:37;;;;;;;;;;;23.10;90.00;;;;;;4593528;19;20316;-24
2023/06/13 07:59:08;;;;;;;;;;;23.10;90.20;;;;;;4593080;19;19915;-26
2023/06/13 08:00:39;;;;;;;;;;;23.10;90.20;;;;;;4593083;19;19915;-24
2023/06/13 08:02:11;;;;;;;;;;;23.10;90.40;;;;;;4592857;19;19986;-23
2023/06/13 08:03:42;;;;;;;;;;;23.10;90.30;;;;;;4592299;19;19926;-22
2023/06/13 08:05:14;;;;;;;;;;;23.00;90.40;;;;;;4591196;19;19923;-23
2023/06/13 08:06:45;;;;;;;;;;;23.10;90.50;;;;;;4590956;19;19930;-22
2023/06/13 08:08:23;;;;;;;;;;;23.10;90.70;;;;;;4590356;19;20236;-24
2023/06/13 08:09:54;;;;;;;;;;;23.10;90.80;;;;;;4590952;19;20002;-23
2023/06/13 08:11:25;;;;;;;;;;;23.10;90.60;;;;;;4589622;19;20027;-24
2023/06/13 08:12:57;;;;;;;;;;;23.10;90.70;;;;;;4590558;19;20304;-24
2023/06/13 08:14:28;;;;;;;;;;;23.10;90.60;;;;;;4591339;19;19935;-26
2023/06/13 08:16:01;;;;;;;;;;;23.00;90.50;;;;;;4591157;19;19974;-25
2023/06/13 08:17:33;;;;;;;;;;;23.00;90.70;;;;;;4591188;19;19915;-26
2023/06/13 08:19:04;;;;;;;;;;;23.00;90.70;;;;;;4590291;19;20141;-30
2023/06/13 08:20:37;;;;;;;;;;;22.90;90.70;;;;;;4590491;19;19919;-23
2023/06/13 08:22:08;;;;;;;;;;;22.90;90.80;;;;;;4591398;19;19922;-24
2023/06/13 08:23:39;;;;;;;;;;;22.90;90.90;;;;;;4590482;19;19985;-23
2023/06/13 08:25:10;;;;;;;;;;;22.90;91.00;;;;;;4590660;19;19922;-23
2023/06/13 08:26:41;;;;;;;;;;;22.90;91.20;;;;;;4590054;19;19943;-24
2023/06/13 08:28:13;;;;;;;;;;;22.90;91.00;;;;;;4590927;19;19982;-22
2023/06/13 08:29:47;;;;;;;;;;;22.90;90.90;;;;;;4590170;19;19940;-24
2023/06/13 08:31:23;;;;;;;;;;;22.90;91.10;;;;;;4591104;19;19987;-24
2023/06/13 08:32:54;;;;;;;;;;;22.90;90.90;;;;;;4591582;19;19937;-24
2023/06/13 08:34:26;;;;;;;;;;;22.90;91.10;;;;;;4589873;19;19940;-23
2023/06/13 08:35:57;;;;;;;;;;;22.90;91.20;;;;;;4590810;19;19914;-24
2023/06/13 08:37:28;;;;;;;;;;;23.00;91.20;;;;;;4591064;19;19907;-24
2023/06/13 08:38:59;;;;;;;;;;;23.00;91.30;;;;;;4590291;19;20246;-23
2023/06/13 08:40:30;;;;;;;;;;;23.00;91.30;;;;;;4589128;19;19922;-22
2023/06/13 08:42:01;;;;;;;;;;;23.00;91.30;;;;;;4590197;19;19941;-22
2023/06/13 08:43:33;;;;;;;;;;;23.00;91.30;;;;;;4591121;19;19941;-22
2023/06/13 08:45:04;;;;;;;;;;;23.00;91.40;;;;;;4591932;19;19946;-24
2023/06/13 08:46:36;;;;;;;;;;;23.00;91.40;;;;;;4591636;19;19911;-24
2023/06/13 08:48:07;;;;;;;;;;;23.00;91.50;;;;;;4591359;19;19922;-24
2023/06/13 08:49:38;;;;;;;;;;;22.90;91.70;;;;;;4590947;19;19927;-27
2023/06/13 08:51:15;;;;;;;;;;;22.90;91.40;;;;;;4591573;19;19919;-26
2023/06/13 08:52:47;;;;;;;;;;;22.90;91.70;;;;;;4590670;19;19919;-26
2023/06/13 08:54:19;;;;;;;;;;;22.90;91.80;;;;;;4590888;19;19919;-26
2023/06/13 08:55:50;;;;;;;;;;;22.90;92.00;;;;;;4591025;19;19971;-25
2023/06/13 08:57:21;;;;;;;;;;;22.90;91.80;;;;;;4590883;19;19973;-23
2023/06/13 08:59:08;;;;;;;;;;;22.90;91.90;;;;;;4589713;19;20307;-26
2023/06/13 09:00:40;;;;;;;;;;;22.90;91.80;;;;;;4592000;19;20335;-23
2023/06/13 09:02:14;;;;;;;;;;;22.90;91.90;;;;;;4590938;19;19923;-26
2023/06/13 09:03:45;;;;;;;;;;;22.90;91.90;;;;;;4591944;19;19915;-23
2023/06/13 09:05:17;;;;;;;;;;;22.90;92.00;;;;;;4590899;19;20300;-24
2023/06/13 09:06:49;;;;;;;;;;;22.90;92.00;;;;;;4591493;19;19919;-28
2023/06/13 09:08:23;;;;;;;;;;;22.90;92.10;;;;;;4590363;19;20385;-24
2023/06/13 09:10:11;;;;;;;;;;;22.90;92.10;;;;;;4589141;19;19938;-24
2023/06/13 09:11:55;;;;;;;;;;;22.90;92.20;;;;;;4589048;19;19922;-25
2023/06/13 09:13:51;;;;;;;;;;;;;;;;;;;;;
2023/06/13 09:43:31;;;;;;;;;;;22.90;93.00;;;;;;4588137;19;19911;-23
2023/06/13 09:45:04;;;;;;;;;;;22.90;92.90;;;;;;4588961;19;19911;-23
2023/06/13 09:46:35;;;;;;;;;;;22.90;92.90;;;;;;4589209;19;19924;-25
2023/06/13 09:48:14;;;;;;;;;;;22.90;93.00;;;;;;4589436;19;19919;-23
2023/06/13 09:49:46;;;;;;;;;;;22.90;93.00;;;;;;4590837;19;19974;-24
2023/06/13 09:51:17;;;;;;;;;;;23.00;93.20;;;;;;4589742;19;19911;-24
2023/06/13 10:16:45;;;;;;;;;;;22.90;93.50;;;;;;4592857;19;19911;-24
2023/06/13 10:18:27;;;;;;;;;;;22.90;93.50;;;;;;4589523;19;20277;-23
2023/06/13 10:20:00;;;;;;;;;;;23.00;93.50;;;;;;4589750;19;19911;-23
2023/06/13 10:21:32;;;;;;;;;;;22.90;93.40;;;;;;4589441;19;20321;-26
2023/06/13 10:23:03;;;;;;;;;;;23.00;93.70;;;;;;4589937;19;19934;-23
2023/06/13 10:24:35;;;;;;;;;;;23.00;93.50;;;;;;4590254;19;20158;-28
2023/06/13 10:26:06;;;;;;;;;;;23.00;93.50;;;;;;4595162;19;19914;-24
2023/06/13 10:27:38;;;;;;;;;;;23.00;93.70;;;;;;4595308;19;19918;-24
2023/06/13 10:29:28;;;;;;;;;;;23.00;93.40;;;;;;4594647;19;20383;-27
2023/06/13 10:31:05;;;;;;;;;;;22.90;93.60;;;;;;4594460;19;19915;-26
2023/06/13 10:32:41;;;;;;;;;;;22.90;93.50;;;;;;4594899;19;20277;-28
2023/06/13 10:34:25;;;;;;;;;;;22.90;93.60;;;;;;4595280;19;19918;-23
2023/06/13 10:36:00;;;;;;;;;;;22.90;93.70;;;;;;4595476;19;19942;-23
2023/06/13 10:37:31;;;;;;;;;;;23.00;93.90;;;;;;4595476;19;19922;-27
2023/06/13 10:39:09;;;;;;;;;;;23.00;93.70;;;;;;4594107;19;19915;-25